sensor_id;sensor_type;location;lat;lon;timestamp;P1;durP1;ratioP1;P2;durP2;ratioP2
5054;SDS011;13829;48.990;8.346;2022-12-18T00:02:24;31.77;;;19.00;;
5054;SDS011;13829;48.990;8.346;2022-12-18T00:04:51;37.40;;;20.20;;
5054;SDS011;13829;48.990;8.346;2022-12-18T00:07:19;36.67;;;20.50;;
5054;SDS011;13829;48.990;8.346;2022-12-18T00:09:46;32.17;;;19.47;;
5054;SDS011;13829;48.990;8.346;2022-12-18T00:12:13;37.43;;;19.93;;
5054;SDS011;13829;48.990;8.346;2022-12-18T00:14:40;33.27;;;19.47;;
5054;SDS011;13829;48.990;8.346;2022-12-18T00:17:07;29.73;;;17.40;;
5054;SDS011;13829;48.990;8.346;2022-12-18T00:19:34;34.33;;;19.73;;
5054;SDS011;13829;48.990;8.346;2022-12-18T00:22:01;36.07;;;19.77;;
5054;SDS011;13829;48.990;8.346;2022-12-18T00:24:30;30.87;;;19.03;;
5054;SDS011;13829;48.990;8.346;2022-12-18T00:26:56;36.60;;;19.87;;
5054;SDS011;13829;48.990;8.346;2022-12-18T00:29:23;30.40;;;18.70;;
5054;SDS011;13829;48.990;8.346;2022-12-18T00:31:50;31.40;;;18.77;;
5054;SDS011;13829;48.990;8.346;2022-12-18T00:34:17;31.67;;;18.57;;
5054;SDS011;13829;48.990;8.346;2022-12-18T00:36:46;29.77;;;17.80;;
5054;SDS011;13829;48.990;8.346;2022-12-18T00:39:14;30.43;;;18.03;;
5054;SDS011;13829;48.990;8.346;2022-12-18T00:41:42;31.23;;;18.43;;
5054;SDS011;13829;48.990;8.346;2022-12-18T00:44:27;31.60;;;18.30;;
5054;SDS011;13829;48.990;8.346;2022-12-18T00:46:53;32.50;;;18.80;;
5054;SDS011;13829;48.990;8.346;2022-12-18T00:49:20;34.37;;;18.90;;
5054;SDS011;13829;48.990;8.346;2022-12-18T00:51:47;30.13;;;19.57;;
5054;SDS011;13829;48.990;8.346;2022-12-18T00:54:15;34.03;;;19.83;;
5054;SDS011;13829;48.990;8.346;2022-12-18T00:56:44;32.57;;;18.80;;
5054;SDS011;13829;48.990;8.346;2022-12-18T00:59:11;33.97;;;19.57;;
5054;SDS011;13829;48.990;8.346;2022-12-18T01:01:38;30.07;;;18.10;;
5054;SDS011;13829;48.990;8.346;2022-12-18T01:04:05;30.90;;;18.27;;
5054;SDS011;13829;48.990;8.346;2022-12-18T01:06:32;30.87;;;19.17;;
5054;SDS011;13829;48.990;8.346;2022-12-18T01:08:59;26.70;;;17.23;;
5054;SDS011;13829;48.990;8.346;2022-12-18T01:11:26;26.67;;;17.03;;
5054;SDS011;13829;48.990;8.346;2022-12-18T01:13:54;29.07;;;17.07;;
5054;SDS011;13829;48.990;8.346;2022-12-18T01:16:22;30.43;;;17.30;;
5054;SDS011;13829;48.990;8.346;2022-12-18T01:18:51;27.27;;;17.03;;
5054;SDS011;13829;48.990;8.346;2022-12-18T01:21:19;30.83;;;18.20;;
5054;SDS011;13829;48.990;8.346;2022-12-18T01:23:50;29.87;;;17.93;;
5054;SDS011;13829;48.990;8.346;2022-12-18T01:26:19;33.77;;;18.87;;
5054;SDS011;13829;48.990;8.346;2022-12-18T01:28:47;30.70;;;17.80;;
5054;SDS011;13829;48.990;8.346;2022-12-18T01:31:16;34.10;;;19.53;;
5054;SDS011;13829;48.990;8.346;2022-12-18T01:33:46;32.90;;;18.77;;
5054;SDS011;13829;48.990;8.346;2022-12-18T01:36:16;46.47;;;26.50;;
5054;SDS011;13829;48.990;8.346;2022-12-18T01:38:46;38.10;;;23.30;;
5054;SDS011;13829;48.990;8.346;2022-12-18T01:41:14;31.60;;;18.13;;
5054;SDS011;13829;48.990;8.346;2022-12-18T01:43:44;33.50;;;18.90;;
5054;SDS011;13829;48.990;8.346;2022-12-18T01:46:20;30.47;;;17.70;;
5054;SDS011;13829;48.990;8.346;2022-12-18T01:48:49;32.33;;;19.23;;
5054;SDS011;13829;48.990;8.346;2022-12-18T01:51:19;31.97;;;17.63;;
5054;SDS011;13829;48.990;8.346;2022-12-18T01:53:47;29.37;;;16.63;;
5054;SDS011;13829;48.990;8.346;2022-12-18T01:56:16;28.77;;;16.60;;
5054;SDS011;13829;48.990;8.346;2022-12-18T01:58:50;31.00;;;18.27;;
5054;SDS011;13829;48.990;8.346;2022-12-18T02:01:25;27.00;;;17.20;;
5054;SDS011;13829;48.990;8.346;2022-12-18T02:03:55;24.37;;;16.00;;
5054;SDS011;13829;48.990;8.346;2022-12-18T02:06:40;28.77;;;17.20;;
5054;SDS011;13829;48.990;8.346;2022-12-18T02:09:09;29.20;;;17.13;;
5054;SDS011;13829;48.990;8.346;2022-12-18T02:11:42;26.63;;;16.50;;
5054;SDS011;13829;48.990;8.346;2022-12-18T02:14:22;28.90;;;17.27;;
5054;SDS011;13829;48.990;8.346;2022-12-18T02:17:02;29.30;;;17.43;;
5054;SDS011;13829;48.990;8.346;2022-12-18T02:19:40;28.00;;;15.83;;
5054;SDS011;13829;48.990;8.346;2022-12-18T02:22:26;26.30;;;16.70;;
5054;SDS011;13829;48.990;8.346;2022-12-18T02:25:12;26.43;;;17.30;;
5054;SDS011;13829;48.990;8.346;2022-12-18T02:27:56;30.37;;;17.53;;
5054;SDS011;13829;48.990;8.346;2022-12-18T02:30:27;28.43;;;16.87;;
5054;SDS011;13829;48.990;8.346;2022-12-18T02:32:59;24.40;;;15.73;;
5054;SDS011;13829;48.990;8.346;2022-12-18T02:35:32;26.77;;;16.27;;
5054;SDS011;13829;48.990;8.346;2022-12-18T02:38:01;27.80;;;16.57;;
5054;SDS011;13829;48.990;8.346;2022-12-18T02:40:30;25.47;;;16.23;;
5054;SDS011;13829;48.990;8.346;2022-12-18T02:43:06;26.70;;;16.47;;
5054;SDS011;13829;48.990;8.346;2022-12-18T02:45:34;28.10;;;16.87;;
5054;SDS011;13829;48.990;8.346;2022-12-18T02:48:01;29.97;;;16.50;;
5054;SDS011;13829;48.990;8.346;2022-12-18T02:50:30;26.33;;;15.87;;
5054;SDS011;13829;48.990;8.346;2022-12-18T02:53:06;29.77;;;19.00;;
5054;SDS011;13829;48.990;8.346;2022-12-18T02:55:46;31.93;;;18.17;;
5054;SDS011;13829;48.990;8.346;2022-12-18T02:58:29;28.83;;;17.70;;
5054;SDS011;13829;48.990;8.346;2022-12-18T03:01:05;26.23;;;15.87;;
5054;SDS011;13829;48.990;8.346;2022-12-18T03:03:40;28.23;;;16.37;;
5054;SDS011;13829;48.990;8.346;2022-12-18T03:06:14;28.53;;;16.97;;
5054;SDS011;13829;48.990;8.346;2022-12-18T03:08:51;25.80;;;15.57;;
5054;SDS011;13829;48.990;8.346;2022-12-18T03:11:25;27.60;;;16.47;;
5054;SDS011;13829;48.990;8.346;2022-12-18T03:14:16;30.73;;;17.43;;
5054;SDS011;13829;48.990;8.346;2022-12-18T03:16:47;27.90;;;16.90;;
5054;SDS011;13829;48.990;8.346;2022-12-18T03:19:22;27.27;;;17.43;;
5054;SDS011;13829;48.990;8.346;2022-12-18T03:21:55;28.23;;;16.87;;
5054;SDS011;13829;48.990;8.346;2022-12-18T03:24:25;27.70;;;16.77;;
5054;SDS011;13829;48.990;8.346;2022-12-18T03:26:58;25.93;;;16.47;;
5054;SDS011;13829;48.990;8.346;2022-12-18T03:29:33;26.80;;;15.43;;
5054;SDS011;13829;48.990;8.346;2022-12-18T03:32:05;24.90;;;15.30;;
5054;SDS011;13829;48.990;8.346;2022-12-18T03:34:38;26.67;;;15.87;;
5054;SDS011;13829;48.990;8.346;2022-12-18T03:37:10;26.70;;;16.67;;
5054;SDS011;13829;48.990;8.346;2022-12-18T03:39:37;25.07;;;16.47;;
5054;SDS011;13829;48.990;8.346;2022-12-18T03:42:05;30.03;;;16.30;;
5054;SDS011;13829;48.990;8.346;2022-12-18T03:44:43;24.77;;;15.03;;
5054;SDS011;13829;48.990;8.346;2022-12-18T03:47:24;27.93;;;16.47;;
5054;SDS011;13829;48.990;8.346;2022-12-18T03:49:56;25.60;;;15.70;;
5054;SDS011;13829;48.990;8.346;2022-12-18T03:52:36;25.93;;;16.30;;
5054;SDS011;13829;48.990;8.346;2022-12-18T03:55:11;28.57;;;16.63;;
5054;SDS011;13829;48.990;8.346;2022-12-18T03:57:39;25.83;;;15.80;;
5054;SDS011;13829;48.990;8.346;2022-12-18T04:00:13;26.57;;;15.63;;
5054;SDS011;13829;48.990;8.346;2022-12-18T04:02:43;27.67;;;16.30;;
5054;SDS011;13829;48.990;8.346;2022-12-18T04:05:20;27.50;;;15.50;;
5054;SDS011;13829;48.990;8.346;2022-12-18T04:07:51;25.30;;;15.93;;
5054;SDS011;13829;48.990;8.346;2022-12-18T04:10:20;28.50;;;15.73;;
5054;SDS011;13829;48.990;8.346;2022-12-18T04:12:48;25.70;;;16.90;;
5054;SDS011;13829;48.990;8.346;2022-12-18T04:15:16;29.50;;;16.67;;
5054;SDS011;13829;48.990;8.346;2022-12-18T04:17:46;27.67;;;16.97;;
5054;SDS011;13829;48.990;8.346;2022-12-18T04:20:16;28.20;;;15.93;;
5054;SDS011;13829;48.990;8.346;2022-12-18T04:22:43;29.07;;;15.17;;
5054;SDS011;13829;48.990;8.346;2022-12-18T04:25:11;30.13;;;17.80;;
5054;SDS011;13829;48.990;8.346;2022-12-18T04:27:38;29.57;;;17.10;;
5054;SDS011;13829;48.990;8.346;2022-12-18T04:30:05;29.37;;;17.40;;
5054;SDS011;13829;48.990;8.346;2022-12-18T04:32:35;27.50;;;16.77;;
5054;SDS011;13829;48.990;8.346;2022-12-18T04:35:02;32.33;;;17.93;;
5054;SDS011;13829;48.990;8.346;2022-12-18T04:37:33;30.83;;;18.17;;
5054;SDS011;13829;48.990;8.346;2022-12-18T04:40:00;31.03;;;19.20;;
5054;SDS011;13829;48.990;8.346;2022-12-18T04:42:27;29.10;;;17.87;;
5054;SDS011;13829;48.990;8.346;2022-12-18T04:44:54;32.77;;;19.13;;
5054;SDS011;13829;48.990;8.346;2022-12-18T04:47:21;34.47;;;19.67;;
5054;SDS011;13829;48.990;8.346;2022-12-18T04:49:49;37.07;;;20.13;;
5054;SDS011;13829;48.990;8.346;2022-12-18T04:52:16;31.90;;;17.73;;
5054;SDS011;13829;48.990;8.346;2022-12-18T04:54:43;33.33;;;17.97;;
5054;SDS011;13829;48.990;8.346;2022-12-18T04:57:09;35.40;;;19.27;;
5054;SDS011;13829;48.990;8.346;2022-12-18T04:59:36;33.73;;;19.07;;
5054;SDS011;13829;48.990;8.346;2022-12-18T05:02:03;33.33;;;20.03;;
5054;SDS011;13829;48.990;8.346;2022-12-18T05:04:30;41.00;;;21.47;;
5054;SDS011;13829;48.990;8.346;2022-12-18T05:06:59;35.50;;;19.27;;
5054;SDS011;13829;48.990;8.346;2022-12-18T05:09:25;32.10;;;18.97;;
5054;SDS011;13829;48.990;8.346;2022-12-18T05:11:52;36.67;;;19.57;;
5054;SDS011;13829;48.990;8.346;2022-12-18T05:14:19;35.73;;;18.67;;
5054;SDS011;13829;48.990;8.346;2022-12-18T05:16:46;33.10;;;18.57;;
5054;SDS011;13829;48.990;8.346;2022-12-18T05:19:13;31.53;;;18.43;;
5054;SDS011;13829;48.990;8.346;2022-12-18T05:21:40;35.30;;;18.80;;
5054;SDS011;13829;48.990;8.346;2022-12-18T05:24:09;36.87;;;19.77;;
5054;SDS011;13829;48.990;8.346;2022-12-18T05:26:36;34.43;;;19.63;;
5054;SDS011;13829;48.990;8.346;2022-12-18T05:29:03;34.50;;;19.67;;
5054;SDS011;13829;48.990;8.346;2022-12-18T05:31:29;36.10;;;19.17;;
5054;SDS011;13829;48.990;8.346;2022-12-18T05:33:57;33.67;;;19.40;;
5054;SDS011;13829;48.990;8.346;2022-12-18T05:36:24;34.03;;;19.70;;
5054;SDS011;13829;48.990;8.346;2022-12-18T05:38:51;37.87;;;20.47;;
5054;SDS011;13829;48.990;8.346;2022-12-18T05:41:19;35.80;;;19.87;;
5054;SDS011;13829;48.990;8.346;2022-12-18T05:43:46;40.13;;;21.20;;
5054;SDS011;13829;48.990;8.346;2022-12-18T05:46:14;36.97;;;20.40;;
5054;SDS011;13829;48.990;8.346;2022-12-18T05:48:43;38.07;;;22.17;;
5054;SDS011;13829;48.990;8.346;2022-12-18T05:51:12;36.07;;;19.73;;
5054;SDS011;13829;48.990;8.346;2022-12-18T05:53:42;35.60;;;19.67;;
5054;SDS011;13829;48.990;8.346;2022-12-18T05:56:10;38.87;;;20.57;;
5054;SDS011;13829;48.990;8.346;2022-12-18T05:58:42;35.57;;;20.43;;
5054;SDS011;13829;48.990;8.346;2022-12-18T06:01:10;39.13;;;20.07;;
5054;SDS011;13829;48.990;8.346;2022-12-18T06:03:39;36.97;;;19.40;;
5054;SDS011;13829;48.990;8.346;2022-12-18T06:06:12;37.23;;;21.20;;
5054;SDS011;13829;48.990;8.346;2022-12-18T06:08:40;35.17;;;19.97;;
5054;SDS011;13829;48.990;8.346;2022-12-18T06:11:07;36.50;;;20.83;;
5054;SDS011;13829;48.990;8.346;2022-12-18T06:13:34;38.03;;;20.93;;
5054;SDS011;13829;48.990;8.346;2022-12-18T06:16:03;36.93;;;20.47;;
5054;SDS011;13829;48.990;8.346;2022-12-18T06:18:31;40.13;;;21.93;;
5054;SDS011;13829;48.990;8.346;2022-12-18T06:20:58;37.80;;;20.43;;
5054;SDS011;13829;48.990;8.346;2022-12-18T06:23:26;39.40;;;21.57;;
5054;SDS011;13829;48.990;8.346;2022-12-18T06:25:54;36.07;;;20.87;;
5054;SDS011;13829;48.990;8.346;2022-12-18T06:28:21;43.00;;;21.80;;
5054;SDS011;13829;48.990;8.346;2022-12-18T06:30:49;38.50;;;20.50;;
5054;SDS011;13829;48.990;8.346;2022-12-18T06:33:17;35.73;;;19.90;;
5054;SDS011;13829;48.990;8.346;2022-12-18T06:35:44;37.10;;;21.10;;
5054;SDS011;13829;48.990;8.346;2022-12-18T06:38:11;34.00;;;19.03;;
5054;SDS011;13829;48.990;8.346;2022-12-18T06:40:38;38.13;;;20.63;;
5054;SDS011;13829;48.990;8.346;2022-12-18T06:43:05;38.03;;;21.03;;
5054;SDS011;13829;48.990;8.346;2022-12-18T06:45:32;34.13;;;19.67;;
5054;SDS011;13829;48.990;8.346;2022-12-18T06:48:00;36.83;;;20.23;;
5054;SDS011;13829;48.990;8.346;2022-12-18T06:50:28;41.77;;;21.90;;
5054;SDS011;13829;48.990;8.346;2022-12-18T06:52:55;37.23;;;20.90;;
5054;SDS011;13829;48.990;8.346;2022-12-18T06:55:22;37.23;;;21.07;;
5054;SDS011;13829;48.990;8.346;2022-12-18T06:57:49;38.33;;;22.50;;
5054;SDS011;13829;48.990;8.346;2022-12-18T07:00:16;37.03;;;21.53;;
5054;SDS011;13829;48.990;8.346;2022-12-18T07:02:44;35.73;;;20.27;;
5054;SDS011;13829;48.990;8.346;2022-12-18T07:05:10;35.73;;;20.23;;
5054;SDS011;13829;48.990;8.346;2022-12-18T07:07:39;34.40;;;18.80;;
5054;SDS011;13829;48.990;8.346;2022-12-18T07:10:06;41.60;;;21.30;;
5054;SDS011;13829;48.990;8.346;2022-12-18T07:12:33;36.63;;;19.57;;
5054;SDS011;13829;48.990;8.346;2022-12-18T07:15:00;35.27;;;19.87;;
5054;SDS011;13829;48.990;8.346;2022-12-18T07:17:27;41.07;;;20.07;;
5054;SDS011;13829;48.990;8.346;2022-12-18T07:19:55;35.90;;;21.77;;
5054;SDS011;13829;48.990;8.346;2022-12-18T07:22:22;35.80;;;20.00;;
5054;SDS011;13829;48.990;8.346;2022-12-18T07:24:52;42.63;;;20.80;;
5054;SDS011;13829;48.990;8.346;2022-12-18T07:27:20;33.67;;;20.37;;
5054;SDS011;13829;48.990;8.346;2022-12-18T07:29:47;38.67;;;22.33;;
5054;SDS011;13829;48.990;8.346;2022-12-18T07:32:14;37.67;;;20.53;;
5054;SDS011;13829;48.990;8.346;2022-12-18T07:34:41;47.30;;;22.27;;
5054;SDS011;13829;48.990;8.346;2022-12-18T07:37:08;34.60;;;20.57;;
5054;SDS011;13829;48.990;8.346;2022-12-18T07:39:35;36.53;;;21.03;;
5054;SDS011;13829;48.990;8.346;2022-12-18T07:42:08;40.97;;;21.47;;
5054;SDS011;13829;48.990;8.346;2022-12-18T07:44:52;40.33;;;20.57;;
5054;SDS011;13829;48.990;8.346;2022-12-18T07:47:19;46.77;;;22.57;;
5054;SDS011;13829;48.990;8.346;2022-12-18T07:49:46;43.23;;;21.27;;
5054;SDS011;13829;48.990;8.346;2022-12-18T07:52:13;43.70;;;23.07;;
5054;SDS011;13829;48.990;8.346;2022-12-18T07:54:40;45.17;;;21.03;;
5054;SDS011;13829;48.990;8.346;2022-12-18T07:57:08;42.57;;;21.47;;
5054;SDS011;13829;48.990;8.346;2022-12-18T07:59:36;44.07;;;21.97;;
5054;SDS011;13829;48.990;8.346;2022-12-18T08:02:03;36.47;;;21.20;;
5054;SDS011;13829;48.990;8.346;2022-12-18T08:04:30;38.90;;;20.37;;
5054;SDS011;13829;48.990;8.346;2022-12-18T08:06:57;44.13;;;22.10;;
5054;SDS011;13829;48.990;8.346;2022-12-18T08:09:23;41.07;;;22.07;;
5054;SDS011;13829;48.990;8.346;2022-12-18T08:11:50;43.90;;;22.90;;
5054;SDS011;13829;48.990;8.346;2022-12-18T08:14:19;40.37;;;21.83;;
5054;SDS011;13829;48.990;8.346;2022-12-18T08:16:45;40.97;;;21.50;;
5054;SDS011;13829;48.990;8.346;2022-12-18T08:19:12;38.57;;;20.67;;
5054;SDS011;13829;48.990;8.346;2022-12-18T08:21:39;43.80;;;22.77;;
5054;SDS011;13829;48.990;8.346;2022-12-18T08:24:06;44.33;;;22.87;;
5054;SDS011;13829;48.990;8.346;2022-12-18T08:26:35;43.83;;;22.60;;
5054;SDS011;13829;48.990;8.346;2022-12-18T08:29:02;46.00;;;23.43;;
5054;SDS011;13829;48.990;8.346;2022-12-18T08:31:30;41.20;;;21.70;;
5054;SDS011;13829;48.990;8.346;2022-12-18T08:33:58;44.07;;;23.63;;
5054;SDS011;13829;48.990;8.346;2022-12-18T08:36:25;48.93;;;23.50;;
5054;SDS011;13829;48.990;8.346;2022-12-18T08:38:52;45.40;;;25.17;;
5054;SDS011;13829;48.990;8.346;2022-12-18T08:41:19;40.97;;;22.60;;
5054;SDS011;13829;48.990;8.346;2022-12-18T08:43:47;44.87;;;23.60;;
5054;SDS011;13829;48.990;8.346;2022-12-18T08:46:34;45.07;;;22.57;;
5054;SDS011;13829;48.990;8.346;2022-12-18T08:49:03;39.00;;;22.17;;
5054;SDS011;13829;48.990;8.346;2022-12-18T08:51:31;51.17;;;25.23;;
5054;SDS011;13829;48.990;8.346;2022-12-18T08:53:59;39.83;;;22.00;;
5054;SDS011;13829;48.990;8.346;2022-12-18T08:56:27;35.53;;;20.67;;
5054;SDS011;13829;48.990;8.346;2022-12-18T08:58:54;36.90;;;23.23;;
5054;SDS011;13829;48.990;8.346;2022-12-18T09:01:22;46.13;;;25.63;;
5054;SDS011;13829;48.990;8.346;2022-12-18T09:03:51;36.90;;;19.63;;
5054;SDS011;13829;48.990;8.346;2022-12-18T09:06:19;37.33;;;19.77;;
5054;SDS011;13829;48.990;8.346;2022-12-18T09:08:48;41.37;;;20.90;;
5054;SDS011;13829;48.990;8.346;2022-12-18T09:11:18;38.27;;;21.37;;
5054;SDS011;13829;48.990;8.346;2022-12-18T09:13:48;41.83;;;21.83;;
5054;SDS011;13829;48.990;8.346;2022-12-18T09:16:16;39.40;;;21.43;;
5054;SDS011;13829;48.990;8.346;2022-12-18T09:18:43;35.07;;;20.60;;
5054;SDS011;13829;48.990;8.346;2022-12-18T09:21:12;45.17;;;23.63;;
5054;SDS011;13829;48.990;8.346;2022-12-18T09:23:41;41.93;;;22.07;;
5054;SDS011;13829;48.990;8.346;2022-12-18T09:26:09;43.13;;;20.83;;
5054;SDS011;13829;48.990;8.346;2022-12-18T09:28:36;42.60;;;21.10;;
5054;SDS011;13829;48.990;8.346;2022-12-18T09:31:04;41.30;;;21.87;;
5054;SDS011;13829;48.990;8.346;2022-12-18T09:33:33;39.83;;;21.50;;
5054;SDS011;13829;48.990;8.346;2022-12-18T09:36:00;47.90;;;23.83;;
5054;SDS011;13829;48.990;8.346;2022-12-18T09:38:31;46.43;;;22.97;;
5054;SDS011;13829;48.990;8.346;2022-12-18T09:40:59;44.00;;;23.30;;
5054;SDS011;13829;48.990;8.346;2022-12-18T09:43:41;39.30;;;21.63;;
5054;SDS011;13829;48.990;8.346;2022-12-18T09:46:15;37.30;;;21.30;;
5054;SDS011;13829;48.990;8.346;2022-12-18T09:48:51;39.43;;;20.67;;
5054;SDS011;13829;48.990;8.346;2022-12-18T09:51:23;39.87;;;21.93;;
5054;SDS011;13829;48.990;8.346;2022-12-18T09:53:58;41.93;;;22.83;;
5054;SDS011;13829;48.990;8.346;2022-12-18T09:56:34;37.80;;;21.13;;
5054;SDS011;13829;48.990;8.346;2022-12-18T09:59:13;42.77;;;22.03;;
5054;SDS011;13829;48.990;8.346;2022-12-18T10:01:47;39.80;;;21.43;;
5054;SDS011;13829;48.990;8.346;2022-12-18T10:04:14;38.07;;;19.43;;
5054;SDS011;13829;48.990;8.346;2022-12-18T10:06:42;37.63;;;19.33;;
5054;SDS011;13829;48.990;8.346;2022-12-18T10:09:23;39.77;;;21.37;;
5054;SDS011;13829;48.990;8.346;2022-12-18T10:12:02;41.20;;;21.53;;
5054;SDS011;13829;48.990;8.346;2022-12-18T10:14:41;37.47;;;21.83;;
5054;SDS011;13829;48.990;8.346;2022-12-18T10:17:19;41.10;;;21.00;;
5054;SDS011;13829;48.990;8.346;2022-12-18T10:19:58;41.43;;;21.37;;
5054;SDS011;13829;48.990;8.346;2022-12-18T10:22:37;45.33;;;24.07;;
5054;SDS011;13829;48.990;8.346;2022-12-18T10:25:19;39.40;;;21.03;;
5054;SDS011;13829;48.990;8.346;2022-12-18T10:27:52;38.67;;;22.43;;
5054;SDS011;13829;48.990;8.346;2022-12-18T10:30:23;39.87;;;20.73;;
5054;SDS011;13829;48.990;8.346;2022-12-18T10:32:51;40.70;;;21.60;;
5054;SDS011;13829;48.990;8.346;2022-12-18T10:35:20;33.93;;;19.30;;
5054;SDS011;13829;48.990;8.346;2022-12-18T10:38:00;42.30;;;21.80;;
5054;SDS011;13829;48.990;8.346;2022-12-18T10:40:33;39.03;;;22.00;;
5054;SDS011;13829;48.990;8.346;2022-12-18T10:43:19;40.90;;;21.27;;
5054;SDS011;13829;48.990;8.346;2022-12-18T10:45:59;41.73;;;22.50;;
5054;SDS011;13829;48.990;8.346;2022-12-18T10:48:39;40.40;;;21.93;;
5054;SDS011;13829;48.990;8.346;2022-12-18T10:51:22;41.03;;;21.50;;
5054;SDS011;13829;48.990;8.346;2022-12-18T10:53:53;39.07;;;21.80;;
5054;SDS011;13829;48.990;8.346;2022-12-18T10:56:27;39.67;;;21.10;;
5054;SDS011;13829;48.990;8.346;2022-12-18T10:58:58;38.43;;;21.20;;
5054;SDS011;13829;48.990;8.346;2022-12-18T11:01:27;38.60;;;21.30;;
5054;SDS011;13829;48.990;8.346;2022-12-18T11:04:13;38.97;;;21.80;;
5054;SDS011;13829;48.990;8.346;2022-12-18T11:06:57;38.57;;;20.90;;
5054;SDS011;13829;48.990;8.346;2022-12-18T11:09:26;42.23;;;23.07;;
5054;SDS011;13829;48.990;8.346;2022-12-18T11:11:58;42.70;;;22.47;;
5054;SDS011;13829;48.990;8.346;2022-12-18T11:14:29;37.83;;;20.93;;
5054;SDS011;13829;48.990;8.346;2022-12-18T11:16:59;40.03;;;21.47;;
5054;SDS011;13829;48.990;8.346;2022-12-18T11:19:32;39.83;;;22.10;;
5054;SDS011;13829;48.990;8.346;2022-12-18T11:22:02;41.20;;;22.53;;
5054;SDS011;13829;48.990;8.346;2022-12-18T11:24:51;41.00;;;23.97;;
5054;SDS011;13829;48.990;8.346;2022-12-18T11:27:23;37.73;;;21.60;;
5054;SDS011;13829;48.990;8.346;2022-12-18T11:29:51;37.10;;;22.00;;
5054;SDS011;13829;48.990;8.346;2022-12-18T11:32:27;41.00;;;22.43;;
5054;SDS011;13829;48.990;8.346;2022-12-18T11:35:04;41.23;;;24.73;;
5054;SDS011;13829;48.990;8.346;2022-12-18T11:37:44;38.33;;;22.23;;
5054;SDS011;13829;48.990;8.346;2022-12-18T11:40:17;40.13;;;22.97;;
5054;SDS011;13829;48.990;8.346;2022-12-18T11:42:56;37.23;;;22.40;;
5054;SDS011;13829;48.990;8.346;2022-12-18T11:45:33;45.77;;;25.20;;
5054;SDS011;13829;48.990;8.346;2022-12-18T11:48:12;44.33;;;25.00;;
5054;SDS011;13829;48.990;8.346;2022-12-18T11:50:46;44.33;;;24.63;;
5054;SDS011;13829;48.990;8.346;2022-12-18T11:53:17;46.30;;;25.30;;
5054;SDS011;13829;48.990;8.346;2022-12-18T11:58:50;44.40;;;25.50;;
5054;SDS011;13829;48.990;8.346;2022-12-18T12:01:31;42.17;;;24.33;;
5054;SDS011;13829;48.990;8.346;2022-12-18T12:07:22;50.57;;;26.37;;
5054;SDS011;13829;48.990;8.346;2022-12-18T12:10:08;45.87;;;25.00;;
5054;SDS011;13829;48.990;8.346;2022-12-18T12:12:56;44.40;;;25.27;;
5054;SDS011;13829;48.990;8.346;2022-12-18T12:15:49;46.40;;;24.30;;
5054;SDS011;13829;48.990;8.346;2022-12-18T12:18:40;46.73;;;26.30;;
5054;SDS011;13829;48.990;8.346;2022-12-18T12:21:22;48.10;;;25.70;;
5054;SDS011;13829;48.990;8.346;2022-12-18T12:24:00;55.33;;;28.60;;
5054;SDS011;13829;48.990;8.346;2022-12-18T12:26:49;45.80;;;25.67;;
5054;SDS011;13829;48.990;8.346;2022-12-18T12:29:32;55.17;;;27.50;;
5054;SDS011;13829;48.990;8.346;2022-12-18T12:32:20;47.07;;;26.90;;
5054;SDS011;13829;48.990;8.346;2022-12-18T12:35:02;50.77;;;26.63;;
5054;SDS011;13829;48.990;8.346;2022-12-18T12:37:47;52.57;;;29.27;;
5054;SDS011;13829;48.990;8.346;2022-12-18T12:40:31;47.10;;;26.27;;
5054;SDS011;13829;48.990;8.346;2022-12-18T12:43:10;47.03;;;25.53;;
5054;SDS011;13829;48.990;8.346;2022-12-18T12:45:49;45.73;;;25.17;;
5054;SDS011;13829;48.990;8.346;2022-12-18T12:48:27;40.97;;;24.10;;
5054;SDS011;13829;48.990;8.346;2022-12-18T12:51:08;39.30;;;24.03;;
5054;SDS011;13829;48.990;8.346;2022-12-18T12:53:42;45.47;;;24.03;;
5054;SDS011;13829;48.990;8.346;2022-12-18T12:56:11;42.33;;;23.93;;
5054;SDS011;13829;48.990;8.346;2022-12-18T12:58:45;42.83;;;24.23;;
5054;SDS011;13829;48.990;8.346;2022-12-18T13:01:25;47.03;;;24.87;;
5054;SDS011;13829;48.990;8.346;2022-12-18T13:04:06;38.50;;;23.47;;
5054;SDS011;13829;48.990;8.346;2022-12-18T13:06:49;42.17;;;24.47;;
5054;SDS011;13829;48.990;8.346;2022-12-18T13:09:29;39.63;;;23.23;;
5054;SDS011;13829;48.990;8.346;2022-12-18T13:12:03;43.90;;;24.33;;
5054;SDS011;13829;48.990;8.346;2022-12-18T13:14:54;43.40;;;24.57;;
5054;SDS011;13829;48.990;8.346;2022-12-18T13:17:45;44.03;;;25.70;;
5054;SDS011;13829;48.990;8.346;2022-12-18T13:20:14;45.80;;;24.90;;
5054;SDS011;13829;48.990;8.346;2022-12-18T13:22:43;40.40;;;25.13;;
5054;SDS011;13829;48.990;8.346;2022-12-18T13:25:32;44.13;;;25.43;;
5054;SDS011;13829;48.990;8.346;2022-12-18T13:28:03;45.50;;;26.57;;
5054;SDS011;13829;48.990;8.346;2022-12-18T13:30:42;48.57;;;26.37;;
5054;SDS011;13829;48.990;8.346;2022-12-18T13:33:36;43.63;;;25.60;;
5054;SDS011;13829;48.990;8.346;2022-12-18T13:36:16;46.00;;;25.63;;
5054;SDS011;13829;48.990;8.346;2022-12-18T13:45:44;40.50;;;23.83;;
5054;SDS011;13829;48.990;8.346;2022-12-18T13:48:16;43.20;;;23.67;;
5054;SDS011;13829;48.990;8.346;2022-12-18T13:50:51;37.93;;;23.30;;
5054;SDS011;13829;48.990;8.346;2022-12-18T13:53:26;42.93;;;25.53;;
5054;SDS011;13829;48.990;8.346;2022-12-18T13:55:58;39.53;;;24.23;;
5054;SDS011;13829;48.990;8.346;2022-12-18T13:58:26;40.67;;;24.47;;
5054;SDS011;13829;48.990;8.346;2022-12-18T14:00:53;40.37;;;25.07;;
5054;SDS011;13829;48.990;8.346;2022-12-18T14:03:21;44.50;;;24.47;;
5054;SDS011;13829;48.990;8.346;2022-12-18T14:05:55;41.67;;;24.40;;
5054;SDS011;13829;48.990;8.346;2022-12-18T14:08:32;39.80;;;24.87;;
5054;SDS011;13829;48.990;8.346;2022-12-18T14:11:04;40.07;;;24.07;;
5054;SDS011;13829;48.990;8.346;2022-12-18T14:13:35;45.37;;;25.97;;
5054;SDS011;13829;48.990;8.346;2022-12-18T14:16:07;40.23;;;24.60;;
5054;SDS011;13829;48.990;8.346;2022-12-18T14:18:42;48.03;;;27.13;;
5054;SDS011;13829;48.990;8.346;2022-12-18T14:21:16;49.63;;;28.03;;
5054;SDS011;13829;48.990;8.346;2022-12-18T14:23:49;40.70;;;25.30;;
5054;SDS011;13829;48.990;8.346;2022-12-18T14:26:31;41.93;;;24.37;;
5054;SDS011;13829;48.990;8.346;2022-12-18T14:28:59;48.57;;;27.37;;
5054;SDS011;13829;48.990;8.346;2022-12-18T14:31:43;41.87;;;24.97;;
5054;SDS011;13829;48.990;8.346;2022-12-18T14:34:14;45.17;;;27.33;;
5054;SDS011;13829;48.990;8.346;2022-12-18T14:36:44;48.93;;;26.63;;
5054;SDS011;13829;48.990;8.346;2022-12-18T14:39:22;44.37;;;26.20;;
5054;SDS011;13829;48.990;8.346;2022-12-18T14:41:50;44.43;;;25.17;;
5054;SDS011;13829;48.990;8.346;2022-12-18T14:44:18;40.43;;;24.83;;
5054;SDS011;13829;48.990;8.346;2022-12-18T14:46:46;44.83;;;27.73;;
5054;SDS011;13829;48.990;8.346;2022-12-18T14:49:18;42.83;;;26.73;;
5054;SDS011;13829;48.990;8.346;2022-12-18T14:51:51;42.50;;;24.90;;
5054;SDS011;13829;48.990;8.346;2022-12-18T14:54:22;41.50;;;24.03;;
5054;SDS011;13829;48.990;8.346;2022-12-18T14:56:53;41.83;;;25.43;;
5054;SDS011;13829;48.990;8.346;2022-12-18T14:59:27;39.97;;;24.30;;
5054;SDS011;13829;48.990;8.346;2022-12-18T15:02:00;41.20;;;24.93;;
5054;SDS011;13829;48.990;8.346;2022-12-18T15:04:37;42.20;;;24.43;;
5054;SDS011;13829;48.990;8.346;2022-12-18T15:07:11;40.37;;;25.37;;
5054;SDS011;13829;48.990;8.346;2022-12-18T15:10:00;45.17;;;25.40;;
5054;SDS011;13829;48.990;8.346;2022-12-18T15:12:36;48.50;;;26.83;;
5054;SDS011;13829;48.990;8.346;2022-12-18T15:18:14;44.13;;;27.00;;